sensor_id;sensor_type;location;lat;lon;timestamp;temperature;humidity
23769;DHT22;12064;50.890;5.424;2024-01-30T00:04:39;16.80;96.90
23769;DHT22;12064;50.890;5.424;2024-01-30T00:13:30;16.80;96.90
23769;DHT22;12064;50.890;5.424;2024-01-30T00:22:21;16.70;96.90
23769;DHT22;12064;50.890;5.424;2024-01-30T00:31:12;16.80;97.00
23769;DHT22;12064;50.890;5.424;2024-01-30T00:40:03;16.70;97.30
23769;DHT22;12064;50.890;5.424;2024-01-30T00:48:54;16.70;97.10
23769;DHT22;12064;50.890;5.424;2024-01-30T00:57:46;16.70;97.10
23769;DHT22;12064;50.890;5.424;2024-01-30T01:06:37;16.70;97.10
23769;DHT22;12064;50.890;5.424;2024-01-30T01:15:28;16.70;97.10
23769;DHT22;12064;50.890;5.424;2024-01-30T01:24:19;16.60;97.20
23769;DHT22;12064;50.890;5.424;2024-01-30T01:33:10;16.60;97.20
23769;DHT22;12064;50.890;5.424;2024-01-30T01:42:00;16.60;97.20
23769;DHT22;12064;50.890;5.424;2024-01-30T01:50:52;16.60;97.20
23769;DHT22;12064;50.890;5.424;2024-01-30T01:59:43;16.60;97.10
23769;DHT22;12064;50.890;5.424;2024-01-30T02:08:34;16.60;97.60
23769;DHT22;12064;50.890;5.424;2024-01-30T02:17:25;16.60;97.40
23769;DHT22;12064;50.890;5.424;2024-01-30T02:26:16;16.60;97.40
23769;DHT22;12064;50.890;5.424;2024-01-30T02:35:07;16.60;97.40
23769;DHT22;12064;50.890;5.424;2024-01-30T02:43:57;16.50;97.40
23769;DHT22;12064;50.890;5.424;2024-01-30T02:52:48;16.60;97.40
23769;DHT22;12064;50.890;5.424;2024-01-30T03:01:45;16.50;97.30
23769;DHT22;12064;50.890;5.424;2024-01-30T03:10:38;16.50;97.30
23769;DHT22;12064;50.890;5.424;2024-01-30T03:19:29;16.50;97.40
23769;DHT22;12064;50.890;5.424;2024-01-30T03:28:19;16.50;97.40
23769;DHT22;12064;50.890;5.424;2024-01-30T03:37:10;16.50;97.50
23769;DHT22;12064;50.890;5.424;2024-01-30T03:46:02;16.50;97.50
23769;DHT22;12064;50.890;5.424;2024-01-30T03:54:53;16.50;97.50
23769;DHT22;12064;50.890;5.424;2024-01-30T04:03:43;16.50;97.60
23769;DHT22;12064;50.890;5.424;2024-01-30T04:12:35;16.50;97.70
23769;DHT22;12064;50.890;5.424;2024-01-30T04:21:28;16.50;97.80
23769;DHT22;12064;50.890;5.424;2024-01-30T04:30:19;16.50;97.90
23769;DHT22;12064;50.890;5.424;2024-01-30T04:39:09;16.50;98.10
23769;DHT22;12064;50.890;5.424;2024-01-30T04:48:01;16.50;98.30
23769;DHT22;12064;50.890;5.424;2024-01-30T04:56:53;16.50;98.40
23769;DHT22;12064;50.890;5.424;2024-01-30T05:05:43;16.50;98.60
23769;DHT22;12064;50.890;5.424;2024-01-30T05:14:34;16.40;98.80
23769;DHT22;12064;50.890;5.424;2024-01-30T05:23:25;16.50;98.90
23769;DHT22;12064;50.890;5.424;2024-01-30T05:32:15;16.50;98.70
23769;DHT22;12064;50.890;5.424;2024-01-30T05:41:06;16.50;98.40
23769;DHT22;12064;50.890;5.424;2024-01-30T05:49:57;16.40;98.10
23769;DHT22;12064;50.890;5.424;2024-01-30T05:58:47;16.50;98.00
23769;DHT22;12064;50.890;5.424;2024-01-30T06:07:38;16.40;97.80
23769;DHT22;12064;50.890;5.424;2024-01-30T06:16:29;16.40;97.70
23769;DHT22;12064;50.890;5.424;2024-01-30T06:25:20;16.50;97.60
23769;DHT22;12064;50.890;5.424;2024-01-30T06:34:10;16.40;97.50
23769;DHT22;12064;50.890;5.424;2024-01-30T06:43:02;16.40;97.50
23769;DHT22;12064;50.890;5.424;2024-01-30T06:51:53;16.40;97.50
23769;DHT22;12064;50.890;5.424;2024-01-30T07:00:43;16.40;97.70
23769;DHT22;12064;50.890;5.424;2024-01-30T07:09:34;16.40;97.80
23769;DHT22;12064;50.890;5.424;2024-01-30T07:18:26;16.40;97.80
23769;DHT22;12064;50.890;5.424;2024-01-30T07:27:17;16.40;97.90
23769;DHT22;12064;50.890;5.424;2024-01-30T07:36:08;16.40;97.90
23769;DHT22;12064;50.890;5.424;2024-01-30T07:45:00;16.40;97.80
23769;DHT22;12064;50.890;5.424;2024-01-30T07:53:53;16.40;97.90
23769;DHT22;12064;50.890;5.424;2024-01-30T08:02:44;16.40;97.80
23769;DHT22;12064;50.890;5.424;2024-01-30T08:11:35;16.50;97.80
23769;DHT22;12064;50.890;5.424;2024-01-30T08:20:25;16.40;97.70
23769;DHT22;12064;50.890;5.424;2024-01-30T08:29:16;16.50;97.70
23769;DHT22;12064;50.890;5.424;2024-01-30T08:38:07;16.50;97.60
23769;DHT22;12064;50.890;5.424;2024-01-30T08:46:58;16.50;97.60
23769;DHT22;12064;50.890;5.424;2024-01-30T08:55:48;16.40;97.60
23769;DHT22;12064;50.890;5.424;2024-01-30T09:04:39;16.50;97.60
23769;DHT22;12064;50.890;5.424;2024-01-30T09:13:30;16.50;97.50
23769;DHT22;12064;50.890;5.424;2024-01-30T09:22:20;16.50;97.40
23769;DHT22;12064;50.890;5.424;2024-01-30T09:31:12;16.50;97.40
23769;DHT22;12064;50.890;5.424;2024-01-30T09:40:03;16.50;97.40
23769;DHT22;12064;50.890;5.424;2024-01-30T09:48:55;16.50;97.30
23769;DHT22;12064;50.890;5.424;2024-01-30T09:57:47;16.50;97.20
23769;DHT22;12064;50.890;5.424;2024-01-30T10:06:40;16.50;97.20
23769;DHT22;12064;50.890;5.424;2024-01-30T10:15:30;16.50;97.10
23769;DHT22;12064;50.890;5.424;2024-01-30T10:24:25;16.50;97.10
23769;DHT22;12064;50.890;5.424;2024-01-30T10:33:15;16.50;97.00
23769;DHT22;12064;50.890;5.424;2024-01-30T10:42:07;16.60;97.00
23769;DHT22;12064;50.890;5.424;2024-01-30T10:51:02;16.60;96.90
23769;DHT22;12064;50.890;5.424;2024-01-30T10:59:56;16.60;96.90
23769;DHT22;12064;50.890;5.424;2024-01-30T11:09:03;16.60;96.80
23769;DHT22;12064;50.890;5.424;2024-01-30T11:18:00;16.60;96.80
23769;DHT22;12064;50.890;5.424;2024-01-30T11:26:59;16.60;96.80
23769;DHT22;12064;50.890;5.424;2024-01-30T11:35:49;16.60;96.80
23769;DHT22;12064;50.890;5.424;2024-01-30T11:44:40;16.60;96.80
23769;DHT22;12064;50.890;5.424;2024-01-30T11:53:32;16.60;96.80
23769;DHT22;12064;50.890;5.424;2024-01-30T12:02:23;16.60;96.70
23769;DHT22;12064;50.890;5.424;2024-01-30T12:11:13;16.60;96.70
23769;DHT22;12064;50.890;5.424;2024-01-30T12:20:12;16.60;96.70
23769;DHT22;12064;50.890;5.424;2024-01-30T12:29:04;16.60;96.70
23769;DHT22;12064;50.890;5.424;2024-01-30T12:37:55;16.60;96.80
23769;DHT22;12064;50.890;5.424;2024-01-30T12:46:47;16.70;96.90
23769;DHT22;12064;50.890;5.424;2024-01-30T12:55:38;16.70;96.80
23769;DHT22;12064;50.890;5.424;2024-01-30T13:04:35;16.70;96.80
23769;DHT22;12064;50.890;5.424;2024-01-30T13:13:25;16.70;96.90
23769;DHT22;12064;50.890;5.424;2024-01-30T13:22:16;16.70;96.80
23769;DHT22;12064;50.890;5.424;2024-01-30T13:31:07;16.70;96.80
23769;DHT22;12064;50.890;5.424;2024-01-30T13:39:57;16.70;96.80
23769;DHT22;12064;50.890;5.424;2024-01-30T13:48:48;16.70;96.80
23769;DHT22;12064;50.890;5.424;2024-01-30T13:57:40;16.70;96.80
23769;DHT22;12064;50.890;5.424;2024-01-30T14:06:31;16.80;96.80
23769;DHT22;12064;50.890;5.424;2024-01-30T14:15:21;16.80;96.80
23769;DHT22;12064;50.890;5.424;2024-01-30T14:24:12;16.80;96.70
23769;DHT22;12064;50.890;5.424;2024-01-30T14:33:03;16.80;96.80
23769;DHT22;12064;50.890;5.424;2024-01-30T14:41:54;16.80;96.70
23769;DHT22;12064;50.890;5.424;2024-01-30T14:50:44;16.80;96.80
23769;DHT22;12064;50.890;5.424;2024-01-30T14:59:35;16.80;96.90
23769;DHT22;12064;50.890;5.424;2024-01-30T15:08:26;16.80;96.90
23769;DHT22;12064;50.890;5.424;2024-01-30T15:17:18;16.80;96.90
23769;DHT22;12064;50.890;5.424;2024-01-30T15:26:09;16.80;96.90
23769;DHT22;12064;50.890;5.424;2024-01-30T15:35:00;16.80;96.90
23769;DHT22;12064;50.890;5.424;2024-01-30T15:43:54;16.80;96.90
23769;DHT22;12064;50.890;5.424;2024-01-30T15:52:44;16.80;96.90
23769;DHT22;12064;50.890;5.424;2024-01-30T16:01:35;16.80;97.00
23769;DHT22;12064;50.890;5.424;2024-01-30T16:10:26;16.80;97.00
23769;DHT22;12064;50.890;5.424;2024-01-30T16:19:16;16.80;97.00
23769;DHT22;12064;50.890;5.424;2024-01-30T16:28:07;16.80;97.00
23769;DHT22;12064;50.890;5.424;2024-01-30T16:36:57;16.80;96.80
23769;DHT22;12064;50.890;5.424;2024-01-30T16:45:48;16.80;96.60
23769;DHT22;12064;50.890;5.424;2024-01-30T16:54:39;16.80;96.50
23769;DHT22;12064;50.890;5.424;2024-01-30T17:03:29;16.80;96.40
23769;DHT22;12064;50.890;5.424;2024-01-30T17:12:20;16.80;96.50
23769;DHT22;12064;50.890;5.424;2024-01-30T17:21:17;16.80;96.30
23769;DHT22;12064;50.890;5.424;2024-01-30T17:30:08;16.80;96.20
23769;DHT22;12064;50.890;5.424;2024-01-30T17:38:58;16.80;96.30
23769;DHT22;12064;50.890;5.424;2024-01-30T17:47:50;16.80;96.20
23769;DHT22;12064;50.890;5.424;2024-01-30T17:56:41;16.80;96.40
23769;DHT22;12064;50.890;5.424;2024-01-30T18:05:32;16.70;96.80
23769;DHT22;12064;50.890;5.424;2024-01-30T18:14:22;16.70;96.90
23769;DHT22;12064;50.890;5.424;2024-01-30T18:23:13;16.70;97.00
23769;DHT22;12064;50.890;5.424;2024-01-30T18:32:05;16.70;97.10
23769;DHT22;12064;50.890;5.424;2024-01-30T18:40:56;16.70;97.10
23769;DHT22;12064;50.890;5.424;2024-01-30T18:49:47;16.70;97.20
23769;DHT22;12064;50.890;5.424;2024-01-30T18:58:41;16.70;97.30
23769;DHT22;12064;50.890;5.424;2024-01-30T19:07:32;16.70;97.30
23769;DHT22;12064;50.890;5.424;2024-01-30T19:16:22;16.70;97.40
23769;DHT22;12064;50.890;5.424;2024-01-30T19:25:13;16.70;97.30
23769;DHT22;12064;50.890;5.424;2024-01-30T19:34:04;16.70;97.50
23769;DHT22;12064;50.890;5.424;2024-01-30T19:42:54;16.60;97.60
23769;DHT22;12064;50.890;5.424;2024-01-30T19:51:45;16.70;97.60
23769;DHT22;12064;50.890;5.424;2024-01-30T20:00:36;16.70;97.60
23769;DHT22;12064;50.890;5.424;2024-01-30T20:09:28;16.70;97.80
23769;DHT22;12064;50.890;5.424;2024-01-30T20:18:19;16.70;98.00
23769;DHT22;12064;50.890;5.424;2024-01-30T20:27:09;16.70;98.10
23769;DHT22;12064;50.890;5.424;2024-01-30T20:36:00;16.60;98.10
23769;DHT22;12064;50.890;5.424;2024-01-30T20:44:52;16.60;98.10
23769;DHT22;12064;50.890;5.424;2024-01-30T20:53:43;16.60;98.10
23769;DHT22;12064;50.890;5.424;2024-01-30T21:02:35;16.60;98.00
23769;DHT22;12064;50.890;5.424;2024-01-30T21:11:27;16.60;98.00
23769;DHT22;12064;50.890;5.424;2024-01-30T21:20:18;16.70;98.10
23769;DHT22;12064;50.890;5.424;2024-01-30T21:29:12;16.60;98.20
23769;DHT22;12064;50.890;5.424;2024-01-30T21:38:02;16.60;98.20
23769;DHT22;12064;50.890;5.424;2024-01-30T21:46:54;16.60;98.30
23769;DHT22;12064;50.890;5.424;2024-01-30T21:55:45;16.60;98.40
23769;DHT22;12064;50.890;5.424;2024-01-30T22:04:36;16.60;98.50
23769;DHT22;12064;50.890;5.424;2024-01-30T22:13:27;16.60;98.40
23769;DHT22;12064;50.890;5.424;2024-01-30T22:22:17;16.50;98.40
23769;DHT22;12064;50.890;5.424;2024-01-30T22:31:08;16.50;98.40
23769;DHT22;12064;50.890;5.424;2024-01-30T22:39:59;16.50;98.40
23769;DHT22;12064;50.890;5.424;2024-01-30T22:48:50;16.50;98.50
23769;DHT22;12064;50.890;5.424;2024-01-30T22:57:40;16.50;98.50
23769;DHT22;12064;50.890;5.424;2024-01-30T23:06:31;16.50;98.50
23769;DHT22;12064;50.890;5.424;2024-01-30T23:15:22;16.50;98.60
23769;DHT22;12064;50.890;5.424;2024-01-30T23:24:15;16.50;98.70
23769;DHT22;12064;50.890;5.424;2024-01-30T23:33:06;16.50;98.80
23769;DHT22;12064;50.890;5.424;2024-01-30T23:41:57;16.40;98.80
23769;DHT22;12064;50.890;5.424;2024-01-30T23:50:47;16.40;98.80
23769;DHT22;12064;50.890;5.424;2024-01-30T23:59:39;16.40;98.80
